Hovedside
METAR-TAF:

METAR-TAF

Lufthavner :

Tarawa, Kiribati

breddegrad: 01-21N, lengdegrad: 172-55E, høyde over havet: 2 m

Gjeldene værobservasjon

Denne rapporten ble laget for 49 minutter siden, klokken 17:00 UTC
Vind 4 kt fra Øst-nordøst
Temperatur 28°C
Luftfuktighet 84%
Trykk 1010 hPa
Sikt 10 km eller mer
Spredte skyer i en høyde av 1900 ft, Tårnskyer (cumulus).
Brutte skyer i en høyde av 30000 ft

METAR: NGTA 091700Z 07004KT 9999 SCT019TCU BKN300 28/25 Q1010

Tid: 07:49 (17:49 UTC)

Varsel

Denne rapporten ble laget for 31 minutter siden, klokken 17:18 UTC
Varsel gyldig fra 09. klokken 18 UTC til 10. klokken 18 UTC
Vind 8 kt fra Øst-nordøst
Sikt 10 km eller mer
Få skyer i en høyde av 1900 ft
Sannsynlighet 30% :
Midlertidig
fra 10. klokken 05 UTC til 10. klokken 18 UTC
Sikt: 5000 m
Få skyer i en høyde av 1800 ft, Bygeskyer.
torden, regn

TAF: NGTA 091718Z 0918/1018 07008KT 9999 FEW019 PROB30 TEMPO 1005/1018 5000 TSRA FEW018CB

Værobservasjoner og værvarsel for over 4000 flyplasser (METAR- og TAF-rapporter).

Tilgjengelige stasjoner er representert av de røde og gule prikkene på kartet.

Hold musepekeren over prikken for å se navnet på stasjonen.

Klikk så for å se værobservasjoner og -varsler.

For å forandre kartet kan du klikke på den grønne knappen med svart kryss for å zoome inn, på den grønne knappen med strek for å zoome ut, eller på de grønne pilene for å se tilstøtende kart.


METAR-TAF: